sensor_id;sensor_type;location;lat;lon;timestamp;P1;durP1;ratioP1;P2;durP2;ratioP2
26750;SDS011;14345;48.272;25.926;2023-04-24T00:00:09;10.75;;;6.43;;
26750;SDS011;14345;48.272;25.926;2023-04-24T00:02:35;9.63;;;6.07;;
26750;SDS011;14345;48.272;25.926;2023-04-24T00:05:05;7.32;;;5.47;;
26750;SDS011;14345;48.272;25.926;2023-04-24T00:07:31;7.47;;;5.93;;
26750;SDS011;14345;48.272;25.926;2023-04-24T00:09:57;7.35;;;5.82;;
26750;SDS011;14345;48.272;25.926;2023-04-24T00:12:23;7.95;;;6.35;;
26750;SDS011;14345;48.272;25.926;2023-04-24T00:14:49;9.60;;;6.30;;
26750;SDS011;14345;48.272;25.926;2023-04-24T00:17:15;8.40;;;6.70;;
26750;SDS011;14345;48.272;25.926;2023-04-24T00:19:45;8.60;;;6.72;;
26750;SDS011;14345;48.272;25.926;2023-04-24T00:22:11;10.13;;;6.20;;
26750;SDS011;14345;48.272;25.926;2023-04-24T00:24:38;9.55;;;6.90;;
26750;SDS011;14345;48.272;25.926;2023-04-24T00:27:04;8.10;;;6.53;;
26750;SDS011;14345;48.272;25.926;2023-04-24T00:29:30;8.68;;;6.50;;
26750;SDS011;14345;48.272;25.926;2023-04-24T00:31:56;8.40;;;6.70;;
26750;SDS011;14345;48.272;25.926;2023-04-24T00:34:22;11.30;;;7.50;;
26750;SDS011;14345;48.272;25.926;2023-04-24T00:36:48;10.73;;;7.22;;
26750;SDS011;14345;48.272;25.926;2023-04-24T00:39:18;10.05;;;7.60;;
26750;SDS011;14345;48.272;25.926;2023-04-24T00:41:44;11.70;;;7.72;;
26750;SDS011;14345;48.272;25.926;2023-04-24T00:44:11;9.60;;;7.30;;
26750;SDS011;14345;48.272;25.926;2023-04-24T00:46:37;10.02;;;6.95;;
26750;SDS011;14345;48.272;25.926;2023-04-24T00:49:04;9.68;;;6.60;;
26750;SDS011;14345;48.272;25.926;2023-04-24T00:51:33;12.43;;;7.10;;
26750;SDS011;14345;48.272;25.926;2023-04-24T00:54:00;10.60;;;7.25;;
26750;SDS011;14345;48.272;25.926;2023-04-24T00:56:26;8.88;;;6.78;;
26750;SDS011;14345;48.272;25.926;2023-04-24T00:58:52;8.23;;;6.60;;
26750;SDS011;14345;48.272;25.926;2023-04-24T01:01:21;11.27;;;6.57;;
26750;SDS011;14345;48.272;25.926;2023-04-24T01:03:51;8.73;;;6.75;;
26750;SDS011;14345;48.272;25.926;2023-04-24T01:06:18;8.48;;;6.78;;
26750;SDS011;14345;48.272;25.926;2023-04-24T01:08:44;8.35;;;6.60;;
26750;SDS011;14345;48.272;25.926;2023-04-24T01:11:11;10.98;;;7.25;;
26750;SDS011;14345;48.272;25.926;2023-04-24T01:13:37;9.50;;;7.22;;
26750;SDS011;14345;48.272;25.926;2023-04-24T01:16:04;9.07;;;6.78;;
26750;SDS011;14345;48.272;25.926;2023-04-24T01:18:30;7.63;;;6.32;;
26750;SDS011;14345;48.272;25.926;2023-04-24T01:20:57;12.25;;;8.25;;
26750;SDS011;14345;48.272;25.926;2023-04-24T01:23:23;10.80;;;7.70;;
26750;SDS011;14345;48.272;25.926;2023-04-24T01:25:50;11.02;;;7.28;;
26750;SDS011;14345;48.272;25.926;2023-04-24T01:28:16;9.68;;;7.18;;
26750;SDS011;14345;48.272;25.926;2023-04-24T01:30:42;10.40;;;7.30;;
26750;SDS011;14345;48.272;25.926;2023-04-24T01:33:09;12.32;;;8.38;;
26750;SDS011;14345;48.272;25.926;2023-04-24T01:35:35;9.88;;;7.38;;
26750;SDS011;14345;48.272;25.926;2023-04-24T01:38:02;13.35;;;9.43;;
26750;SDS011;14345;48.272;25.926;2023-04-24T01:40:28;18.08;;;11.02;;
26750;SDS011;14345;48.272;25.926;2023-04-24T01:42:54;16.17;;;10.82;;
26750;SDS011;14345;48.272;25.926;2023-04-24T01:45:20;17.05;;;10.50;;
26750;SDS011;14345;48.272;25.926;2023-04-24T01:47:46;13.90;;;9.13;;
26750;SDS011;14345;48.272;25.926;2023-04-24T01:50:13;15.98;;;8.82;;
26750;SDS011;14345;48.272;25.926;2023-04-24T01:52:39;13.90;;;8.45;;
26750;SDS011;14345;48.272;25.926;2023-04-24T01:55:06;11.23;;;8.30;;
26750;SDS011;14345;48.272;25.926;2023-04-24T01:57:32;8.88;;;7.53;;
26750;SDS011;14345;48.272;25.926;2023-04-24T01:59:59;10.63;;;7.32;;
26750;SDS011;14345;48.272;25.926;2023-04-24T02:02:25;12.90;;;8.35;;
26750;SDS011;14345;48.272;25.926;2023-04-24T02:04:54;13.38;;;8.10;;
26750;SDS011;14345;48.272;25.926;2023-04-24T02:07:20;13.10;;;9.75;;
26750;SDS011;14345;48.272;25.926;2023-04-24T02:09:46;13.05;;;8.77;;
26750;SDS011;14345;48.272;25.926;2023-04-24T02:12:13;13.05;;;8.20;;
26750;SDS011;14345;48.272;25.926;2023-04-24T02:14:39;12.57;;;8.57;;
26750;SDS011;14345;48.272;25.926;2023-04-24T02:17:05;11.82;;;8.48;;
26750;SDS011;14345;48.272;25.926;2023-04-24T02:19:31;11.45;;;8.40;;
26750;SDS011;14345;48.272;25.926;2023-04-24T02:21:57;10.40;;;7.38;;
26750;SDS011;14345;48.272;25.926;2023-04-24T02:24:23;13.23;;;7.80;;
26750;SDS011;14345;48.272;25.926;2023-04-24T02:26:49;11.18;;;8.00;;
26750;SDS011;14345;48.272;25.926;2023-04-24T02:29:16;11.30;;;7.93;;
26750;SDS011;14345;48.272;25.926;2023-04-24T02:31:42;14.73;;;9.88;;
26750;SDS011;14345;48.272;25.926;2023-04-24T02:34:08;14.32;;;9.75;;
26750;SDS011;14345;48.272;25.926;2023-04-24T02:36:34;11.50;;;8.15;;
26750;SDS011;14345;48.272;25.926;2023-04-24T02:39:00;11.02;;;7.40;;
26750;SDS011;14345;48.272;25.926;2023-04-24T02:41:26;10.95;;;7.40;;
26750;SDS011;14345;48.272;25.926;2023-04-24T02:43:57;11.07;;;7.68;;
26750;SDS011;14345;48.272;25.926;2023-04-24T02:46:23;10.10;;;7.03;;
26750;SDS011;14345;48.272;25.926;2023-04-24T02:48:49;9.57;;;7.05;;
26750;SDS011;14345;48.272;25.926;2023-04-24T02:51:15;11.23;;;6.95;;
26750;SDS011;14345;48.272;25.926;2023-04-24T02:53:41;9.45;;;6.53;;
26750;SDS011;14345;48.272;25.926;2023-04-24T02:56:07;11.00;;;7.45;;
26750;SDS011;14345;48.272;25.926;2023-04-24T02:58:33;13.10;;;7.25;;
26750;SDS011;14345;48.272;25.926;2023-04-24T03:01:00;14.60;;;9.80;;
26750;SDS011;14345;48.272;25.926;2023-04-24T03:03:26;13.88;;;9.45;;
26750;SDS011;14345;48.272;25.926;2023-04-24T03:05:52;11.30;;;7.47;;
26750;SDS011;14345;48.272;25.926;2023-04-24T03:08:18;9.95;;;6.80;;
26750;SDS011;14345;48.272;25.926;2023-04-24T03:10:44;10.40;;;6.78;;
26750;SDS011;14345;48.272;25.926;2023-04-24T03:13:10;12.38;;;7.70;;
26750;SDS011;14345;48.272;25.926;2023-04-24T03:15:36;13.05;;;7.40;;
26750;SDS011;14345;48.272;25.926;2023-04-24T03:18:02;11.65;;;7.28;;
26750;SDS011;14345;48.272;25.926;2023-04-24T03:20:29;13.52;;;7.50;;
26750;SDS011;14345;48.272;25.926;2023-04-24T03:22:55;13.63;;;7.25;;
26750;SDS011;14345;48.272;25.926;2023-04-24T03:25:22;14.07;;;7.60;;
26750;SDS011;14345;48.272;25.926;2023-04-24T03:27:48;12.45;;;6.97;;
26750;SDS011;14345;48.272;25.926;2023-04-24T03:30:14;13.48;;;8.57;;
26750;SDS011;14345;48.272;25.926;2023-04-24T03:32:40;22.20;;;14.40;;
26750;SDS011;14345;48.272;25.926;2023-04-24T03:35:06;26.77;;;16.88;;
26750;SDS011;14345;48.272;25.926;2023-04-24T03:37:33;20.27;;;11.68;;
26750;SDS011;14345;48.272;25.926;2023-04-24T03:39:59;18.90;;;11.27;;
26750;SDS011;14345;48.272;25.926;2023-04-24T03:42:25;16.58;;;10.13;;
26750;SDS011;14345;48.272;25.926;2023-04-24T03:44:51;16.38;;;8.60;;
26750;SDS011;14345;48.272;25.926;2023-04-24T03:47:18;12.82;;;8.15;;
26750;SDS011;14345;48.272;25.926;2023-04-24T03:49:44;14.48;;;7.78;;
26750;SDS011;14345;48.272;25.926;2023-04-24T03:52:10;13.45;;;8.73;;
26750;SDS011;14345;48.272;25.926;2023-04-24T03:54:36;13.45;;;8.77;;
26750;SDS011;14345;48.272;25.926;2023-04-24T03:57:02;14.38;;;9.80;;
26750;SDS011;14345;48.272;25.926;2023-04-24T03:59:29;11.70;;;7.72;;
26750;SDS011;14345;48.272;25.926;2023-04-24T04:01:55;12.25;;;7.00;;
26750;SDS011;14345;48.272;25.926;2023-04-24T04:04:21;11.18;;;6.72;;
26750;SDS011;14345;48.272;25.926;2023-04-24T04:06:47;12.40;;;7.57;;
26750;SDS011;14345;48.272;25.926;2023-04-24T04:09:14;11.50;;;7.15;;
26750;SDS011;14345;48.272;25.926;2023-04-24T04:11:40;10.35;;;7.00;;
26750;SDS011;14345;48.272;25.926;2023-04-24T04:14:06;11.48;;;6.95;;
26750;SDS011;14345;48.272;25.926;2023-04-24T04:16:32;10.40;;;6.53;;
26750;SDS011;14345;48.272;25.926;2023-04-24T04:18:58;8.98;;;6.45;;
26750;SDS011;14345;48.272;25.926;2023-04-24T04:21:24;11.73;;;6.88;;
26750;SDS011;14345;48.272;25.926;2023-04-24T04:23:51;8.55;;;6.13;;
26750;SDS011;14345;48.272;25.926;2023-04-24T04:26:17;10.18;;;7.00;;
26750;SDS011;14345;48.272;25.926;2023-04-24T04:28:44;8.30;;;6.70;;
26750;SDS011;14345;48.272;25.926;2023-04-24T04:31:10;11.48;;;7.60;;
26750;SDS011;14345;48.272;25.926;2023-04-24T04:33:36;17.08;;;12.07;;
26750;SDS011;14345;48.272;25.926;2023-04-24T04:36:04;20.10;;;13.70;;
26750;SDS011;14345;48.272;25.926;2023-04-24T04:38:30;19.90;;;12.65;;
26750;SDS011;14345;48.272;25.926;2023-04-24T04:40:56;18.38;;;11.50;;
26750;SDS011;14345;48.272;25.926;2023-04-24T04:43:25;17.77;;;9.65;;
26750;SDS011;14345;48.272;25.926;2023-04-24T04:45:52;14.60;;;8.63;;
26750;SDS011;14345;48.272;25.926;2023-04-24T04:48:19;12.73;;;8.57;;
26750;SDS011;14345;48.272;25.926;2023-04-24T04:50:45;10.82;;;7.40;;
26750;SDS011;14345;48.272;25.926;2023-04-24T04:53:11;13.35;;;8.05;;
26750;SDS011;14345;48.272;25.926;2023-04-24T04:55:37;12.00;;;7.45;;
26750;SDS011;14345;48.272;25.926;2023-04-24T04:58:03;13.95;;;7.70;;
26750;SDS011;14345;48.272;25.926;2023-04-24T05:00:29;12.45;;;8.15;;
26750;SDS011;14345;48.272;25.926;2023-04-24T05:03:00;12.70;;;8.82;;
26750;SDS011;14345;48.272;25.926;2023-04-24T05:05:26;14.35;;;9.23;;
26750;SDS011;14345;48.272;25.926;2023-04-24T05:07:52;12.52;;;8.10;;
26750;SDS011;14345;48.272;25.926;2023-04-24T05:10:18;24.25;;;9.95;;
26750;SDS011;14345;48.272;25.926;2023-04-24T05:12:44;16.80;;;9.43;;
26750;SDS011;14345;48.272;25.926;2023-04-24T05:15:10;15.20;;;9.70;;
26750;SDS011;14345;48.272;25.926;2023-04-24T05:17:36;21.38;;;13.68;;
26750;SDS011;14345;48.272;25.926;2023-04-24T05:20:04;14.30;;;10.45;;
26750;SDS011;14345;48.272;25.926;2023-04-24T05:22:31;13.02;;;9.77;;
26750;SDS011;14345;48.272;25.926;2023-04-24T05:24:57;15.40;;;10.75;;
26750;SDS011;14345;48.272;25.926;2023-04-24T05:27:24;14.43;;;10.10;;
26750;SDS011;14345;48.272;25.926;2023-04-24T05:29:50;15.57;;;10.32;;
26750;SDS011;14345;48.272;25.926;2023-04-24T05:32:16;13.40;;;8.65;;
26750;SDS011;14345;48.272;25.926;2023-04-24T05:34:42;10.23;;;8.05;;
26750;SDS011;14345;48.272;25.926;2023-04-24T05:37:08;14.40;;;8.55;;
26750;SDS011;14345;48.272;25.926;2023-04-24T05:39:35;10.55;;;7.75;;
26750;SDS011;14345;48.272;25.926;2023-04-24T05:42:01;9.75;;;6.82;;
26750;SDS011;14345;48.272;25.926;2023-04-24T05:44:29;10.43;;;7.22;;
26750;SDS011;14345;48.272;25.926;2023-04-24T05:46:55;11.02;;;6.97;;
26750;SDS011;14345;48.272;25.926;2023-04-24T05:49:21;10.93;;;7.40;;
26750;SDS011;14345;48.272;25.926;2023-04-24T05:51:47;10.45;;;6.80;;
26750;SDS011;14345;48.272;25.926;2023-04-24T05:54:14;14.88;;;9.45;;
26750;SDS011;14345;48.272;25.926;2023-04-24T05:56:40;14.52;;;9.30;;
26750;SDS011;14345;48.272;25.926;2023-04-24T05:59:06;9.23;;;7.07;;
26750;SDS011;14345;48.272;25.926;2023-04-24T06:01:32;8.25;;;6.70;;
26750;SDS011;14345;48.272;25.926;2023-04-24T06:03:58;8.82;;;6.28;;
26750;SDS011;14345;48.272;25.926;2023-04-24T06:06:25;9.95;;;6.75;;
26750;SDS011;14345;48.272;25.926;2023-04-24T06:08:52;10.38;;;6.38;;
26750;SDS011;14345;48.272;25.926;2023-04-24T06:11:18;10.75;;;7.25;;
26750;SDS011;14345;48.272;25.926;2023-04-24T06:13:44;12.00;;;6.85;;
26750;SDS011;14345;48.272;25.926;2023-04-24T06:16:10;8.48;;;6.85;;
26750;SDS011;14345;48.272;25.926;2023-04-24T06:18:36;10.40;;;7.43;;
26750;SDS011;14345;48.272;25.926;2023-04-24T06:21:03;9.02;;;6.88;;
26750;SDS011;14345;48.272;25.926;2023-04-24T06:23:30;15.93;;;8.93;;
26750;SDS011;14345;48.272;25.926;2023-04-24T06:25:57;9.30;;;6.75;;
26750;SDS011;14345;48.272;25.926;2023-04-24T06:28:23;10.35;;;6.38;;
26750;SDS011;14345;48.272;25.926;2023-04-24T06:30:50;8.27;;;6.80;;
26750;SDS011;14345;48.272;25.926;2023-04-24T06:33:16;7.40;;;5.80;;
26750;SDS011;14345;48.272;25.926;2023-04-24T06:35:42;10.15;;;6.57;;
26750;SDS011;14345;48.272;25.926;2023-04-24T06:38:08;12.52;;;6.95;;
26750;SDS011;14345;48.272;25.926;2023-04-24T06:40:34;10.20;;;7.50;;
26750;SDS011;14345;48.272;25.926;2023-04-24T06:43:00;13.85;;;8.20;;
26750;SDS011;14345;48.272;25.926;2023-04-24T06:45:28;10.00;;;7.15;;
26750;SDS011;14345;48.272;25.926;2023-04-24T06:47:54;13.93;;;9.30;;
26750;SDS011;14345;48.272;25.926;2023-04-24T06:50:20;13.27;;;8.43;;
26750;SDS011;14345;48.272;25.926;2023-04-24T06:52:46;9.52;;;7.28;;
26750;SDS011;14345;48.272;25.926;2023-04-24T06:55:12;8.77;;;6.70;;
26750;SDS011;14345;48.272;25.926;2023-04-24T06:57:40;11.98;;;7.00;;
26750;SDS011;14345;48.272;25.926;2023-04-24T07:00:06;9.77;;;7.10;;
26750;SDS011;14345;48.272;25.926;2023-04-24T07:02:34;10.32;;;7.45;;
26750;SDS011;14345;48.272;25.926;2023-04-24T07:05:00;13.38;;;7.32;;
26750;SDS011;14345;48.272;25.926;2023-04-24T07:07:26;9.63;;;6.53;;
26750;SDS011;14345;48.272;25.926;2023-04-24T07:09:53;14.55;;;7.93;;
26750;SDS011;14345;48.272;25.926;2023-04-24T07:12:19;12.77;;;7.63;;
26750;SDS011;14345;48.272;25.926;2023-04-24T07:14:46;13.45;;;7.57;;
26750;SDS011;14345;48.272;25.926;2023-04-24T07:17:13;10.63;;;6.88;;
26750;SDS011;14345;48.272;25.926;2023-04-24T07:19:39;11.82;;;7.20;;
26750;SDS011;14345;48.272;25.926;2023-04-24T07:22:05;11.35;;;7.28;;
26750;SDS011;14345;48.272;25.926;2023-04-24T07:24:31;11.68;;;7.10;;
26750;SDS011;14345;48.272;25.926;2023-04-24T07:26:58;12.48;;;7.57;;
26750;SDS011;14345;48.272;25.926;2023-04-24T07:29:26;12.15;;;7.68;;
26750;SDS011;14345;48.272;25.926;2023-04-24T07:31:52;10.35;;;6.95;;
26750;SDS011;14345;48.272;25.926;2023-04-24T07:34:19;15.82;;;6.75;;
26750;SDS011;14345;48.272;25.926;2023-04-24T07:36:45;12.40;;;7.78;;
26750;SDS011;14345;48.272;25.926;2023-04-24T07:39:12;9.65;;;6.80;;
26750;SDS011;14345;48.272;25.926;2023-04-24T07:41:38;10.65;;;6.70;;
26750;SDS011;14345;48.272;25.926;2023-04-24T07:44:04;12.43;;;6.30;;
26750;SDS011;14345;48.272;25.926;2023-04-24T07:46:30;14.80;;;7.70;;
26750;SDS011;14345;48.272;25.926;2023-04-24T07:48:57;8.88;;;7.18;;
26750;SDS011;14345;48.272;25.926;2023-04-24T07:51:24;10.52;;;7.47;;
26750;SDS011;14345;48.272;25.926;2023-04-24T07:53:52;11.70;;;7.32;;
26750;SDS011;14345;48.272;25.926;2023-04-24T07:56:20;10.88;;;7.22;;
26750;SDS011;14345;48.272;25.926;2023-04-24T07:58:46;16.35;;;7.35;;
26750;SDS011;14345;48.272;25.926;2023-04-24T08:01:12;8.70;;;6.90;;
26750;SDS011;14345;48.272;25.926;2023-04-24T08:03:38;9.60;;;7.20;;
26750;SDS011;14345;48.272;25.926;2023-04-24T08:06:04;9.38;;;6.20;;
26750;SDS011;14345;48.272;25.926;2023-04-24T08:08:30;11.38;;;6.75;;
26750;SDS011;14345;48.272;25.926;2023-04-24T08:10:57;12.70;;;7.65;;
26750;SDS011;14345;48.272;25.926;2023-04-24T08:13:23;15.43;;;8.15;;
26750;SDS011;14345;48.272;25.926;2023-04-24T08:15:49;11.13;;;7.82;;
26750;SDS011;14345;48.272;25.926;2023-04-24T08:18:15;12.57;;;8.00;;
26750;SDS011;14345;48.272;25.926;2023-04-24T08:20:41;10.05;;;7.57;;
26750;SDS011;14345;48.272;25.926;2023-04-24T08:23:07;14.38;;;8.32;;
26750;SDS011;14345;48.272;25.926;2023-04-24T08:25:33;12.73;;;8.32;;
26750;SDS011;14345;48.272;25.926;2023-04-24T08:28:01;13.48;;;8.55;;
26750;SDS011;14345;48.272;25.926;2023-04-24T08:30:28;14.07;;;8.20;;
26750;SDS011;14345;48.272;25.926;2023-04-24T08:32:54;14.05;;;8.00;;
26750;SDS011;14345;48.272;25.926;2023-04-24T08:35:20;13.40;;;6.90;;
26750;SDS011;14345;48.272;25.926;2023-04-24T08:37:46;10.18;;;6.88;;
26750;SDS011;14345;48.272;25.926;2023-04-24T08:40:13;16.67;;;7.35;;
26750;SDS011;14345;48.272;25.926;2023-04-24T08:42:41;12.38;;;6.53;;
26750;SDS011;14345;48.272;25.926;2023-04-24T08:45:08;11.52;;;7.35;;
26750;SDS011;14345;48.272;25.926;2023-04-24T08:47:35;9.82;;;6.55;;
26750;SDS011;14345;48.272;25.926;2023-04-24T08:50:02;10.38;;;6.93;;
26750;SDS011;14345;48.272;25.926;2023-04-24T08:52:28;15.15;;;7.15;;
26750;SDS011;14345;48.272;25.926;2023-04-24T08:54:54;11.63;;;6.15;;
26750;SDS011;14345;48.272;25.926;2023-04-24T08:57:21;14.90;;;7.85;;
26750;SDS011;14345;48.272;25.926;2023-04-24T08:59:47;12.00;;;6.45;;
26750;SDS011;14345;48.272;25.926;2023-04-24T09:02:13;9.63;;;7.22;;
26750;SDS011;14345;48.272;25.926;2023-04-24T09:04:40;11.38;;;7.25;;
26750;SDS011;14345;48.272;25.926;2023-04-24T09:07:06;11.18;;;6.93;;
26750;SDS011;14345;48.272;25.926;2023-04-24T09:09:33;11.07;;;6.47;;
26750;SDS011;14345;48.272;25.926;2023-04-24T09:12:00;10.40;;;6.13;;
26750;SDS011;14345;48.272;25.926;2023-04-24T09:14:27;8.48;;;5.55;;
26750;SDS011;14345;48.272;25.926;2023-04-24T09:16:53;8.88;;;6.03;;
26750;SDS011;14345;48.272;25.926;2023-04-24T09:19:19;12.30;;;6.22;;
26750;SDS011;14345;48.272;25.926;2023-04-24T09:21:46;8.48;;;5.82;;
26750;SDS011;14345;48.272;25.926;2023-04-24T09:24:17;8.98;;;5.55;;
26750;SDS011;14345;48.272;25.926;2023-04-24T09:26:43;7.07;;;4.90;;
26750;SDS011;14345;48.272;25.926;2023-04-24T09:29:14;6.78;;;4.72;;
26750;SDS011;14345;48.272;25.926;2023-04-24T09:31:40;10.32;;;6.18;;
26750;SDS011;14345;48.272;25.926;2023-04-24T09:34:06;10.02;;;5.50;;
26750;SDS011;14345;48.272;25.926;2023-04-24T09:36:35;9.38;;;5.40;;
26750;SDS011;14345;48.272;25.926;2023-04-24T09:39:05;10.02;;;5.43;;
26750;SDS011;14345;48.272;25.926;2023-04-24T09:41:33;11.55;;;4.88;;
26750;SDS011;14345;48.272;25.926;2023-04-24T09:44:15;11.88;;;6.35;;
26750;SDS011;14345;48.272;25.926;2023-04-24T09:46:42;9.40;;;4.95;;
26750;SDS011;14345;48.272;25.926;2023-04-24T09:49:13;9.35;;;5.22;;
26750;SDS011;14345;48.272;25.926;2023-04-24T09:51:40;7.28;;;5.03;;
26750;SDS011;14345;48.272;25.926;2023-04-24T09:54:14;7.30;;;4.90;;
26750;SDS011;14345;48.272;25.926;2023-04-24T09:56:44;8.75;;;5.88;;
26750;SDS011;14345;48.272;25.926;2023-04-24T09:59:10;10.90;;;6.70;;
26750;SDS011;14345;48.272;25.926;2023-04-24T10:01:36;10.80;;;5.85;;
26750;SDS011;14345;48.272;25.926;2023-04-24T10:04:03;11.45;;;5.55;;
26750;SDS011;14345;48.272;25.926;2023-04-24T10:06:31;7.85;;;5.05;;
26750;SDS011;14345;48.272;25.926;2023-04-24T10:08:57;8.98;;;5.30;;
26750;SDS011;14345;48.272;25.926;2023-04-24T10:11:25;6.32;;;4.55;;
26750;SDS011;14345;48.272;25.926;2023-04-24T10:13:52;10.73;;;4.72;;
26750;SDS011;14345;48.272;25.926;2023-04-24T10:16:18;6.95;;;4.32;;
26750;SDS011;14345;48.272;25.926;2023-04-24T10:18:44;6.47;;;4.00;;
26750;SDS011;14345;48.272;25.926;2023-04-24T10:21:11;7.28;;;3.70;;
26750;SDS011;14345;48.272;25.926;2023-04-24T10:23:37;6.07;;;3.90;;
26750;SDS011;14345;48.272;25.926;2023-04-24T10:26:04;5.05;;;3.38;;
26750;SDS011;14345;48.272;25.926;2023-04-24T10:28:30;6.63;;;3.13;;
26750;SDS011;14345;48.272;25.926;2023-04-24T10:30:56;5.38;;;3.10;;
26750;SDS011;14345;48.272;25.926;2023-04-24T10:33:22;5.40;;;3.13;;
26750;SDS011;14345;48.272;25.926;2023-04-24T10:35:49;4.68;;;3.17;;
26750;SDS011;14345;48.272;25.926;2023-04-24T10:38:17;5.82;;;3.08;;
26750;SDS011;14345;48.272;25.926;2023-04-24T10:40:44;4.55;;;2.70;;
26750;SDS011;14345;48.272;25.926;2023-04-24T10:43:10;4.28;;;2.92;;
26750;SDS011;14345;48.272;25.926;2023-04-24T10:45:39;9.30;;;3.03;;
26750;SDS011;14345;48.272;25.926;2023-04-24T10:48:06;5.68;;;2.90;;
26750;SDS011;14345;48.272;25.926;2023-04-24T10:50:45;3.47;;;2.63;;
26750;SDS011;14345;48.272;25.926;2023-04-24T10:53:16;4.88;;;2.67;;
26750;SDS011;14345;48.272;25.926;2023-04-24T10:55:43;4.95;;;3.05;;
26750;SDS011;14345;48.272;25.926;2023-04-24T10:58:10;3.25;;;2.55;;
26750;SDS011;14345;48.272;25.926;2023-04-24T11:00:37;3.33;;;2.60;;
26750;SDS011;14345;48.272;25.926;2023-04-24T11:03:07;3.45;;;2.75;;
26750;SDS011;14345;48.272;25.926;2023-04-24T11:05:56;6.00;;;3.38;;
26750;SDS011;14345;48.272;25.926;2023-04-24T11:13:23;7.30;;;3.38;;
26750;SDS011;14345;48.272;25.926;2023-04-24T11:18:38;6.60;;;3.15;;
26750;SDS011;14345;48.272;25.926;2023-04-24T11:21:13;4.75;;;2.70;;
26750;SDS011;14345;48.272;25.926;2023-04-24T11:23:39;4.30;;;2.80;;
26750;SDS011;14345;48.272;25.926;2023-04-24T11:26:18;6.20;;;3.47;;
26750;SDS011;14345;48.272;25.926;2023-04-24T11:28:48;7.78;;;3.25;;
26750;SDS011;14345;48.272;25.926;2023-04-24T11:34:05;7.07;;;3.50;;
26750;SDS011;14345;48.272;25.926;2023-04-24T11:36:31;6.53;;;2.92;;
26750;SDS011;14345;48.272;25.926;2023-04-24T11:38:57;8.88;;;3.15;;
26750;SDS011;14345;48.272;25.926;2023-04-24T11:41:23;13.23;;;3.47;;
26750;SDS011;14345;48.272;25.926;2023-04-24T11:43:50;7.18;;;2.90;;
26750;SDS011;14345;48.272;25.926;2023-04-24T11:46:17;13.25;;;3.17;;
26750;SDS011;14345;48.272;25.926;2023-04-24T11:48:46;6.20;;;2.90;;
26750;SDS011;14345;48.272;25.926;2023-04-24T11:51:15;3.03;;;2.50;;
26750;SDS011;14345;48.272;25.926;2023-04-24T11:53:41;4.70;;;2.65;;
26750;SDS011;14345;48.272;25.926;2023-04-24T11:56:08;8.15;;;3.10;;
26750;SDS011;14345;48.272;25.926;2023-04-24T11:58:38;3.17;;;2.45;;
26750;SDS011;14345;48.272;25.926;2023-04-24T12:01:04;3.63;;;3.00;;
26750;SDS011;14345;48.272;25.926;2023-04-24T12:03:31;6.00;;;3.03;;
26750;SDS011;14345;48.272;25.926;2023-04-24T12:06:06;6.97;;;3.75;;
26750;SDS011;14345;48.272;25.926;2023-04-24T12:08:35;7.28;;;3.90;;
26750;SDS011;14345;48.272;25.926;2023-04-24T12:11:02;6.13;;;3.85;;
26750;SDS011;14345;48.272;25.926;2023-04-24T12:13:28;6.90;;;3.83;;
26750;SDS011;14345;48.272;25.926;2023-04-24T12:15:56;9.90;;;4.28;;
26750;SDS011;14345;48.272;25.926;2023-04-24T12:18:23;6.68;;;3.72;;
26750;SDS011;14345;48.272;25.926;2023-04-24T12:20:49;6.55;;;3.70;;
26750;SDS011;14345;48.272;25.926;2023-04-24T12:23:15;8.77;;;3.85;;
26750;SDS011;14345;48.272;25.926;2023-04-24T12:25:42;6.82;;;3.45;;
26750;SDS011;14345;48.272;25.926;2023-04-24T12:28:10;10.88;;;3.45;;
26750;SDS011;14345;48.272;25.926;2023-04-24T12:30:48;6.70;;;3.40;;
26750;SDS011;14345;48.272;25.926;2023-04-24T12:33:19;6.53;;;2.88;;
26750;SDS011;14345;48.272;25.926;2023-04-24T12:35:45;6.78;;;2.17;;
26750;SDS011;14345;48.272;25.926;2023-04-24T12:38:12;10.45;;;2.22;;
26750;SDS011;14345;48.272;25.926;2023-04-24T12:40:39;6.60;;;2.17;;
26750;SDS011;14345;48.272;25.926;2023-04-24T12:43:13;4.25;;;2.63;;
26750;SDS011;14345;48.272;25.926;2023-04-24T12:45:40;4.18;;;2.78;;
26750;SDS011;14345;48.272;25.926;2023-04-24T12:48:06;5.10;;;2.88;;
26750;SDS011;14345;48.272;25.926;2023-04-24T12:50:32;4.97;;;2.13;;
26750;SDS011;14345;48.272;25.926;2023-04-24T12:52:59;4.68;;;2.28;;
26750;SDS011;14345;48.272;25.926;2023-04-24T12:55:25;5.85;;;2.50;;
26750;SDS011;14345;48.272;25.926;2023-04-24T12:57:51;2.83;;;2.50;;
26750;SDS011;14345;48.272;25.926;2023-04-24T13:00:18;5.45;;;2.50;;
26750;SDS011;14345;48.272;25.926;2023-04-24T13:02:44;3.15;;;2.30;;
26750;SDS011;14345;48.272;25.926;2023-04-24T13:05:10;5.35;;;2.95;;
26750;SDS011;14345;48.272;25.926;2023-04-24T13:07:38;7.75;;;2.97;;
26750;SDS011;14345;48.272;25.926;2023-04-24T13:10:05;4.25;;;2.60;;
26750;SDS011;14345;48.272;25.926;2023-04-24T13:12:31;2.78;;;2.40;;
26750;SDS011;14345;48.272;25.926;2023-04-24T13:14:58;3.83;;;2.05;;
26750;SDS011;14345;48.272;25.926;2023-04-24T13:17:24;3.38;;;2.28;;
26750;SDS011;14345;48.272;25.926;2023-04-24T13:19:51;2.17;;;1.90;;
26750;SDS011;14345;48.272;25.926;2023-04-24T13:22:17;2.30;;;2.08;;
26750;SDS011;14345;48.272;25.926;2023-04-24T13:24:44;3.63;;;2.33;;
26750;SDS011;14345;48.272;25.926;2023-04-24T13:27:10;10.57;;;2.80;;
26750;SDS011;14345;48.272;25.926;2023-04-24T13:29:36;5.85;;;1.95;;
26750;SDS011;14345;48.272;25.926;2023-04-24T13:32:03;6.00;;;3.15;;
26750;SDS011;14345;48.272;25.926;2023-04-24T13:34:29;4.43;;;2.40;;
26750;SDS011;14345;48.272;25.926;2023-04-24T13:36:56;2.00;;;1.80;;
26750;SDS011;14345;48.272;25.926;2023-04-24T13:39:22;3.47;;;2.20;;
26750;SDS011;14345;48.272;25.926;2023-04-24T13:41:48;4.00;;;2.30;;
26750;SDS011;14345;48.272;25.926;2023-04-24T13:44:15;3.90;;;2.80;;
26750;SDS011;14345;48.272;25.926;2023-04-24T13:46:42;3.58;;;2.08;;
26750;SDS011;14345;48.272;25.926;2023-04-24T13:49:12;3.60;;;1.73;;
26750;SDS011;14345;48.272;25.926;2023-04-24T13:51:38;4.70;;;2.80;;
26750;SDS011;14345;48.272;25.926;2023-04-24T13:54:05;4.18;;;2.45;;
26750;SDS011;14345;48.272;25.926;2023-04-24T13:56:31;2.20;;;1.98;;
26750;SDS011;14345;48.272;25.926;2023-04-24T13:58:57;2.95;;;1.98;;
26750;SDS011;14345;48.272;25.926;2023-04-24T14:01:23;2.30;;;1.85;;
26750;SDS011;14345;48.272;25.926;2023-04-24T14:03:53;3.65;;;2.33;;
26750;SDS011;14345;48.272;25.926;2023-04-24T14:06:19;3.35;;;2.38;;
26750;SDS011;14345;48.272;25.926;2023-04-24T14:08:46;3.58;;;2.65;;
26750;SDS011;14345;48.272;25.926;2023-04-24T14:11:12;2.33;;;1.88;;
26750;SDS011;14345;48.272;25.926;2023-04-24T14:13:39;6.32;;;2.40;;
26750;SDS011;14345;48.272;25.926;2023-04-24T14:16:06;2.55;;;2.00;;
26750;SDS011;14345;48.272;25.926;2023-04-24T14:18:32;3.58;;;2.20;;
26750;SDS011;14345;48.272;25.926;2023-04-24T14:20:58;3.03;;;1.90;;
26750;SDS011;14345;48.272;25.926;2023-04-24T14:23:26;3.45;;;2.00;;
26750;SDS011;14345;48.272;25.926;2023-04-24T14:25:52;2.85;;;2.10;;
26750;SDS011;14345;48.272;25.926;2023-04-24T14:28:18;6.43;;;3.53;;
26750;SDS011;14345;48.272;25.926;2023-04-24T14:30:45;3.60;;;2.30;;
26750;SDS011;14345;48.272;25.926;2023-04-24T14:33:11;4.53;;;3.45;;